Time;durP1;ratioP1;P1;durP2;ratioP2;P2;SDS_P1;SDS_P2;PMS_P1;PMS_P2;Temp;Humidity;BMP_temperature;BMP_pressure;BME280_temperature;BME280_humidity;BME280_pressure;Samples;Min_cycle;Max_cycle;Signal;HPM_P1;HPM_P2
2024/03/20 00:02:29;;;;;;;3.97;2.53;;;;;;;;;;5070780;28;20036;-69
2024/03/20 00:05:34;;;;;;;5.03;2.70;;;;;;;;;;5071124;28;20040;-70
2024/03/20 00:08:38;;;;;;;4.68;2.50;;;;;;;;;;5071173;28;20483;-70
2024/03/20 00:11:43;;;;;;;7.53;2.30;;;;;;;;;;5070737;28;20036;-70
2024/03/20 00:14:48;;;;;;;3.92;2.53;;;;;;;;;;5070800;28;20601;-70
2024/03/20 00:17:52;;;;;;;3.90;2.42;;;;;;;;;;5070692;28;20040;-70
2024/03/20 00:20:57;;;;;;;6.00;2.67;;;;;;;;;;5070647;28;20028;-70
2024/03/20 00:24:02;;;;;;;5.97;2.60;;;;;;;;;;5070568;28;20100;-70
2024/03/20 00:27:06;;;;;;;4.28;2.53;;;;;;;;;;5070606;28;20045;-69
2024/03/20 00:30:11;;;;;;;4.68;2.58;;;;;;;;;;5070778;28;20040;-70
2024/03/20 00:33:15;;;;;;;4.30;2.80;;;;;;;;;;5070526;28;20040;-70
2024/03/20 00:36:21;;;;;;;3.38;2.50;;;;;;;;;;5069845;28;20044;-70
2024/03/20 00:39:25;;;;;;;5.18;2.40;;;;;;;;;;5070563;28;20377;-69
2024/03/20 00:42:29;;;;;;;2.88;2.25;;;;;;;;;;5070708;28;20037;-70
2024/03/20 00:45:33;;;;;;;3.03;2.42;;;;;;;;;;5070544;28;20103;-70
2024/03/20 00:48:38;;;;;;;3.42;2.60;;;;;;;;;;5070627;28;20037;-70
2024/03/20 00:51:42;;;;;;;3.40;2.33;;;;;;;;;;5069713;28;20033;-70
2024/03/20 00:54:47;;;;;;;4.28;2.40;;;;;;;;;;5070268;28;20500;-70
2024/03/20 00:57:51;;;;;;;3.35;2.47;;;;;;;;;;5070302;28;20041;-70
2024/03/20 01:00:55;;;;;;;3.67;2.58;;;;;;;;;;5070495;28;20033;-70
2024/03/20 01:03:59;;;;;;;3.45;2.60;;;;;;;;;;5070314;28;20036;-70
2024/03/20 01:07:04;;;;;;;3.63;2.33;;;;;;;;;;5070250;28;20040;-69
2024/03/20 01:10:09;;;;;;;3.67;2.35;;;;;;;;;;5072049;28;20033;-70
2024/03/20 01:13:16;;;;;;;4.15;2.58;;;;;;;;;;5074046;28;20040;-70
2024/03/20 01:16:20;;;;;;;3.83;2.75;;;;;;;;;;5073846;28;20036;-70
2024/03/20 01:19:26;;;;;;;4.05;2.92;;;;;;;;;;5074005;28;20044;-70
2024/03/20 01:22:35;;;;;;;3.45;2.28;;;14.60;88.40;;;;;;5073902;28;20033;-70
2024/03/20 01:25:39;;;;;;;5.65;2.50;;;;;;;;;;5073436;28;20048;-70
2024/03/20 01:28:44;;;;;;;6.05;2.80;;;;;;;;;;5073960;28;20048;-69
2024/03/20 01:31:48;;;;;;;5.13;2.40;;;;;;;;;;5073890;28;20036;-70
2024/03/20 01:34:52;;;;;;;5.18;2.38;;;;;;;;;;5073829;28;20041;-70
2024/03/20 01:37:56;;;;;;;3.92;2.40;;;;;;;;;;5073362;28;20053;-70
2024/03/20 01:41:01;;;;;;;4.88;2.20;;;;;;;;;;5073743;28;20044;-69
2024/03/20 01:44:06;;;;;;;3.83;2.45;;;;;;;;;;5073803;28;20044;-70
2024/03/20 01:47:10;;;;;;;6.95;2.85;;;;;;;;;;5073418;28;20032;-70
2024/03/20 01:50:15;;;;;;;4.70;2.42;;;15.00;84.80;;;;;;5073454;28;20393;-69
2024/03/20 01:53:20;;;;;;;3.47;2.60;;;;;;;;;;5073516;28;20052;-70
2024/03/20 01:56:24;;;;;;;3.58;2.50;;;;;;;;;;5073446;28;20032;-70
2024/03/20 01:59:28;;;;;;;4.05;2.53;;;;;;;;;;5073288;28;20048;-70
2024/03/20 02:02:32;;;;;;;5.18;2.40;;;;;;;;;;5072858;28;20032;-69
2024/03/20 02:05:37;;;;;;;3.90;2.60;;;;;;;;;;5073301;28;20100;-70
2024/03/20 02:08:41;;;;;;;2.92;2.28;;;;;;;;;;5073361;28;20032;-70
2024/03/20 02:11:45;;;;;;;4.57;3.05;;;;;;;;;;5072679;28;20032;-70
2024/03/20 02:14:50;;;;;;;2.95;2.25;;;;;;;;;;5072966;28;20040;-70
2024/03/20 02:17:54;;;;;;;3.05;1.92;;;;;;;;;;5072939;28;20041;-69
2024/03/20 02:20:59;;;;;;;4.00;2.42;;;;;;;;;;5072564;28;20032;-69
2024/03/20 02:24:05;;;;;;;3.63;2.53;;;;;;;;;;5072853;28;20032;-70
2024/03/20 02:27:10;;;;;;;4.93;2.50;;;;;;;;;;5072448;28;20048;-70
2024/03/20 02:30:14;;;;;;;4.95;2.88;;;;;;;;;;5072866;28;20028;-70
2024/03/20 02:33:19;;;;;;;7.28;3.08;;;;;;;;;;5072353;28;20033;-70
2024/03/20 02:36:24;;;;;;;9.30;4.72;;;;;;;;;;5072537;28;20040;-69
2024/03/20 02:39:28;;;;;;;5.65;3.60;;;;;;;;;;5072428;28;20040;-70
2024/03/20 02:42:33;;;;;;;4.85;3.20;;;;;;;;;;5072369;28;20044;-69
2024/03/20 02:45:37;;;;;;;4.85;3.30;;;;;;;;;;5072454;28;20032;-70
2024/03/20 02:48:41;;;;;;;5.70;2.92;;;;;;;;;;5072178;28;20044;-70
2024/03/20 02:51:46;;;;;;;4.15;3.20;;;;;;;;;;5072507;28;20036;-70
2024/03/20 02:54:50;;;;;;;3.42;2.60;;;;;;;;;;5072616;28;20484;-69
2024/03/20 02:57:55;;;;;;;3.97;2.70;;;;;;;;;;5071088;28;20048;-69
2024/03/20 03:00:59;;;;;;;5.57;3.00;;;;;;;;;;5071245;28;20032;-70
2024/03/20 03:04:04;;;;;;;4.57;2.65;;;;;;;;;;5072472;28;20044;-70
2024/03/20 03:07:08;;;;;;;5.13;2.70;;;;;;;;;;5071894;28;20036;-69
2024/03/20 03:10:14;;;;;;;5.82;2.65;;;;;;;;;;5070990;28;20032;-69
2024/03/20 03:13:18;;;;;;;3.72;2.80;;;;;;;;;;5071839;28;20041;-69
2024/03/20 03:16:23;;;;;;;7.88;2.97;;;;;;;;;;5072073;28;20044;-70
2024/03/20 03:19:27;;;;;;;4.55;2.80;;;;;;;;;;5071085;28;20052;-69
2024/03/20 03:22:33;;;;;;;5.38;2.95;;;14.30;89.30;;;;;;5071765;28;20037;-70
2024/03/20 03:25:37;;;;;;;6.78;3.22;;;;;;;;;;5071435;28;20052;-69
2024/03/20 03:28:42;;;;;;;7.55;2.85;;;;;;;;;;5071658;28;20045;-69
2024/03/20 03:31:47;;;;;;;8.80;3.03;;;13.60;89.30;;;;;;5070996;28;20036;-69
2024/03/20 03:34:51;;;;;;;7.20;3.60;;;;;;;;;;5070751;28;20079;-69
2024/03/20 03:37:56;;;;;;;8.02;3.00;;;;;;;;;;5070442;28;20044;-69
2024/03/20 03:41:00;;;;;;;5.30;3.00;;;;;;;;;;5071334;28;20564;-69
2024/03/20 03:44:05;;;;;;;4.95;3.00;;;;;;;;;;5071455;28;20045;-69
2024/03/20 03:47:09;;;;;;;4.93;3.10;;;;;;;;;;5071898;28;20032;-69
2024/03/20 03:50:13;;;;;;;5.70;3.00;;;;;;;;;;5071307;28;20032;-69
2024/03/20 03:53:18;;;;;;;4.18;3.47;;;;;;;;;;5071254;28;20044;-69
2024/03/20 03:56:22;;;;;;;6.25;2.63;;;;;;;;;;5058808;28;20036;-70
2024/03/20 03:59:27;;;;;;;6.28;3.10;;;;;;;;;;5071309;28;20044;-69
2024/03/20 04:02:32;;;;;;;3.42;2.83;;;;;;;;;;5070882;28;20048;-69
2024/03/20 04:05:36;;;;;;;3.50;2.90;;;;;;;;;;5071239;28;20040;-70
2024/03/20 04:08:40;;;;;;;4.70;3.15;;;;;;;;;;5071153;28;20036;-69
2024/03/20 04:11:44;;;;;;;3.92;2.75;;;14.10;88.40;;;;;;5071142;28;20032;-69
2024/03/20 04:14:48;;;;;;;9.13;3.28;;;;;;;;;;5071113;28;20047;-69
2024/03/20 04:17:53;;;;;;;3.92;2.92;;;;;;;;;;5070813;28;20048;-70
2024/03/20 04:20:56;;;;;;;4.32;2.90;;;14.20;87.60;;;;;;5070060;28;20369;-70
2024/03/20 04:24:01;;;;;;;5.30;2.75;;;14.10;87.60;;;;;;5071003;28;20051;-69
2024/03/20 04:27:06;;;;;;;4.70;2.75;;;;;;;;;;5070750;28;20055;-70
2024/03/20 04:30:13;;;;;;;4.32;2.80;;;14.00;88.30;;;;;;5070812;28;20037;-70
2024/03/20 04:33:17;;;;;;;3.72;2.60;;;14.00;88.10;;;;;;5070124;28;20044;-70
2024/03/20 04:36:23;;;;;;;3.28;2.60;;;14.00;88.20;;;;;;5070868;28;20046;-69
2024/03/20 04:39:32;;;;;;;5.50;2.65;;;13.90;87.90;;;;;;5070857;28;20059;-70
2024/03/20 04:42:36;;;;;;;5.00;3.10;;;13.70;87.40;;;;;;5070925;28;20051;-70
2024/03/20 04:45:40;;;;;;;9.27;2.60;;;;;;;;;;5074164;28;20047;-69
2024/03/20 04:48:45;;;;;;;6.40;2.97;;;;;;;;;;5073883;28;20037;-69
2024/03/20 04:51:50;;;;;;;13.82;3.13;;;;;;;;;;5073876;28;20033;-70
2024/03/20 04:54:56;;;;;;;4.05;2.90;;;14.00;87.60;;;;;;5074511;28;20511;-70
2024/03/20 04:58:00;;;;;;;3.78;3.10;;;14.00;87.70;;;;;;5073765;28;20056;-70
2024/03/20 05:01:04;;;;;;;5.47;2.80;;;13.80;88.10;;;;;;5074283;28;20529;-70
2024/03/20 05:04:08;;;;;;;5.50;3.30;;;13.60;89.20;;;;;;5074555;28;20047;-70
2024/03/20 05:07:12;;;;;;;3.90;2.72;;;13.70;89.00;;;;;;5074147;28;20067;-70
2024/03/20 05:10:16;;;;;;;8.63;3.10;;;;;;;;;;5074149;28;20412;-69
2024/03/20 05:13:20;;;;;;;4.05;2.85;;;13.60;88.40;;;;;;5073976;28;20033;-69
2024/03/20 05:16:24;;;;;;;7.03;3.22;;;;;;;;;;5074301;28;20090;-70
2024/03/20 05:19:28;;;;;;;5.70;2.70;;;;;;;;;;5074243;28;20377;-70
2024/03/20 05:22:33;;;;;;;5.53;2.75;;;;;;;;;;5073362;28;20029;-70
2024/03/20 05:25:39;;;;;;;7.90;3.30;;;;;;;;;;5074016;28;20044;-70
2024/03/20 05:28:43;;;;;;;3.97;3.17;;;14.10;87.20;;;;;;5073996;28;20044;-69
2024/03/20 05:31:48;;;;;;;6.25;3.08;;;;;;;;;;5073974;28;20043;-70
2024/03/20 05:34:52;;;;;;;3.65;3.05;;;;;;;;;;5073898;28;20033;-70
2024/03/20 05:37:56;;;;;;;4.90;3.00;;;;;;;;;;5073801;28;20045;-70
2024/03/20 05:41:01;;;;;;;6.13;3.17;;;;;;;;;;5073767;28;20355;-70
2024/03/20 05:44:05;;;;;;;10.95;3.22;;;;;;;;;;5073877;28;20041;-69
2024/03/20 05:47:09;;;;;;;25.73;4.20;;;;;;;;;;5073675;28;20032;-68
2024/03/20 05:50:14;;;;;;;10.07;3.40;;;;;;;;;;5073287;28;20058;-68
2024/03/20 05:53:18;;;;;;;9.13;3.33;;;;;;;;;;5073558;28;20136;-69
2024/03/20 05:56:24;;;;;;;6.90;3.08;;;;;;;;;;5072734;28;20045;-69
2024/03/20 05:59:29;;;;;;;34.58;4.68;;;;;;;;;;5073046;28;20044;-69
2024/03/20 06:02:34;;;;;;;5.82;3.28;;;;;;;;;;5072724;28;20043;-69
2024/03/20 06:05:38;;;;;;;5.28;2.75;;;;;;;;;;5072472;28;20045;-69
2024/03/20 06:08:42;;;;;;;5.63;2.53;;;;;;;;;;5073181;28;20472;-69
2024/03/20 06:11:46;;;;;;;5.72;2.45;;;;;;;;;;5072711;28;20037;-68
2024/03/20 06:14:52;;;;;;;5.88;2.70;;;21.20;71.50;;;;;;5073150;28;20461;-68
2024/03/20 06:17:58;;;;;;;6.50;2.72;;;;;;;;;;5072726;28;20071;-69
2024/03/20 06:21:02;;;;;;;8.23;2.83;;;;;;;;;;5060416;28;20338;-68
2024/03/20 06:24:06;;;;;;;11.95;3.30;;;;;;;;;;5072957;28;20041;-68
2024/03/20 06:27:11;;;;;;;7.60;3.00;;;22.40;68.80;;;;;;5072687;28;20052;-69
2024/03/20 06:30:18;;;;;;;7.47;3.20;;;;;;;;;;5072480;28;20531;-68
2024/03/20 06:33:23;;;;;;;4.75;2.38;;;;;;;;;;5072479;28;20032;-68
2024/03/20 06:36:27;;;;;;;10.57;3.65;;;23.00;67.90;;;;;;5072720;28;20040;-69
2024/03/20 06:39:31;;;;;;;7.72;3.30;;;23.00;68.10;;;;;;5071675;28;20131;-68
2024/03/20 06:42:35;;;;;;;8.23;3.42;;;22.80;68.70;;;;;;5071959;28;20048;-68
2024/03/20 06:45:47;;;;;;;6.35;2.58;;;22.20;68.60;;;;;;5070725;28;20044;-67
2024/03/20 06:48:52;;;;;;;7.25;2.75;;;22.10;68.60;;;;;;5070477;28;20051;-68
2024/03/20 06:51:56;;;;;;;4.93;2.10;;;21.60;69.20;;;;;;5071934;28;20399;-68
2024/03/20 06:55:00;;;;;;;7.20;2.60;;;21.20;69.50;;;;;;5072215;28;20055;-68
2024/03/20 06:58:04;;;;;;;5.32;2.55;;;20.70;70.30;;;;;;5072067;28;20048;-67
2024/03/20 07:01:08;;;;;;;4.80;2.38;;;;;;;;;;5071282;28;20119;-69
2024/03/20 07:04:12;;;;;;;7.88;2.60;;;;;;;;;;5072485;28;20032;-68
2024/03/20 07:07:16;;;;;;;8.10;3.58;;;;;;;;;;5070179;28;20040;-69
2024/03/20 07:10:21;;;;;;;6.60;2.92;;;;;;;;;;5071838;28;20037;-68
2024/03/20 07:13:25;;;;;;;9.75;2.72;;;;;;;;;;5071834;28;20044;-68
2024/03/20 07:16:30;;;;;;;3.78;2.50;;;;;;;;;;5071540;28;20036;-67
2024/03/20 07:19:34;;;;;;;7.88;2.83;;;;;;;;;;5071491;28;20048;-67
2024/03/20 07:22:38;;;;;;;7.00;2.40;;;;;;;;;;5071020;28;20481;-68
2024/03/20 07:25:43;;;;;;;5.15;2.13;;;;;;;;;;5071617;28;20472;-68
2024/03/20 07:28:47;;;;;;;12.75;3.05;;;;;;;;;;5071110;28;20056;-68
2024/03/20 07:31:52;;;;;;;5.00;2.90;;;;;;;;;;5071403;28;20055;-67
2024/03/20 07:34:56;;;;;;;7.78;3.05;;;;;;;;;;5071504;28;20036;-68
2024/03/20 07:38:01;;;;;;;17.10;3.22;;;;;;;;;;5071577;28;20044;-68
2024/03/20 07:41:06;;;;;;;6.25;2.17;;;;;;;;;;5071313;28;20499;-69
2024/03/20 07:44:11;;;;;;;3.65;2.08;;;;;;;;;;5071221;28;20033;-66
2024/03/20 07:47:15;;;;;;;6.63;2.40;;;;;;;;;;5071359;28;20037;-69
2024/03/20 07:50:20;;;;;;;9.35;2.88;;;;;;;;;;5070391;28;20524;-68
2024/03/20 07:53:24;;;;;;;12.68;2.60;;;;;;;;;;5071263;28;20040;-68
2024/03/20 07:56:28;;;;;;;7.65;2.15;;;;;;;;;;5071301;28;20139;-68
2024/03/20 07:59:33;;;;;;;4.90;2.50;;;;;;;;;;5070645;28;20048;-67
2024/03/20 08:02:37;;;;;;;6.35;2.38;;;;;;;;;;5070841;28;20036;-68
2024/03/20 08:05:41;;;;;;;10.30;2.58;;;;;;;;;;5070249;28;20044;-67
2024/03/20 08:08:46;;;;;;;5.93;2.05;;;;;;;;;;5070547;28;20032;-67
2024/03/20 08:11:50;;;;;;;5.90;1.92;;;;;;;;;;5070922;28;20040;-68
2024/03/20 08:14:55;;;;;;;5.53;1.98;;;;;;;;;;5069944;28;20040;-66
2024/03/20 08:17:59;;;;;;;4.00;2.30;;;;;;;;;;5070531;28;20476;-69
2024/03/20 08:21:03;;;;;;;7.57;2.53;;;;;;;;;;5069866;28;20040;-68
2024/03/20 08:24:08;;;;;;;7.95;2.15;;;;;;;;;;5070715;28;20024;-70
2024/03/20 08:27:12;;;;;;;6.07;2.00;;;;;;;;;;5070296;28;20049;-67
2024/03/20 08:30:17;;;;;;;4.30;2.30;;;;;;;;;;5070058;28;20036;-68
2024/03/20 08:33:22;;;;;;;4.65;2.20;;;;;;;;;;5070361;28;20044;-68
2024/03/20 08:36:26;;;;;;;5.63;1.92;;;;;;;;;;5070154;28;20044;-69
2024/03/20 08:39:31;;;;;;;9.15;2.30;;;;;;;;;;5070097;28;20057;-68
2024/03/20 08:42:35;;;;;;;6.28;1.98;;;;;;;;;;5070224;28;20049;-68
2024/03/20 08:45:40;;;;;;;5.32;2.65;;;;;;;;;;5070403;28;20044;-68
2024/03/20 08:48:44;;;;;;;4.05;1.83;;;;;;;;;;5070752;28;20045;-68
2024/03/20 08:51:49;;;;;;;4.82;1.92;;;;;;;;;;5069662;28;20040;-68
2024/03/20 08:54:53;;;;;;;5.32;2.17;;;;;;;;;;5070351;28;20378;-68
2024/03/20 08:57:57;;;;;;;5.65;3.10;;;;;;;;;;5070499;28;20041;-68
2024/03/20 09:01:02;;;;;;;4.40;1.75;;;;;;;;;;5070070;28;20032;-68
2024/03/20 09:04:06;;;;;;;5.72;1.85;;;;;;;;;;5070361;28;20040;-68
2024/03/20 09:07:10;;;;;;;5.75;2.33;;;;;;;;;;5070196;28;20037;-68
2024/03/20 09:10:15;;;;;;;3.40;1.90;;;;;;;;;;5069895;28;20036;-68
2024/03/20 09:13:19;;;;;;;8.88;2.40;;;;;;;;;;5070408;28;20154;-68
2024/03/20 09:16:23;;;;;;;14.85;2.50;;;;;;;;;;5070600;28;20040;-70
2024/03/20 09:19:28;;;;;;;7.47;2.05;;;;;;;;;;5069907;28;20075;-69
2024/03/20 09:22:32;;;;;;;7.30;2.08;;;;;;;;;;5069549;28;20044;-69
2024/03/20 09:25:37;;;;;;;5.38;2.80;;;;;;;;;;5070086;28;20048;-69
2024/03/20 09:28:41;;;;;;;2.90;1.98;;;;;;;;;;5070086;28;20045;-69
2024/03/20 09:31:45;;;;;;;8.35;2.47;;;;;;;;;;5072686;28;20377;-69
2024/03/20 09:34:51;;;;;;;10.90;2.75;;;;;;;;;;5073893;28;20045;-69
2024/03/20 09:37:55;;;;;;;2.90;2.00;;;;;;;;;;5073789;28;20056;-69
2024/03/20 09:40:59;;;;;;;5.38;2.20;;;;;;;;;;5073713;28;20033;-69
2024/03/20 09:44:05;;;;;;;3.70;2.28;;;;;;;;;;5072458;28;20040;-69
2024/03/20 09:47:10;;;;;;;7.25;1.80;;;;;;;;;;5073176;28;20028;-72
2024/03/20 09:50:14;;;;;;;3.72;1.90;;;;;;;;;;5073275;28;20044;-70
2024/03/20 09:53:19;;;;;;;3.45;1.70;;;;;;;;;;5072225;28;20041;-70
2024/03/20 09:56:27;;;;;;;3.10;2.03;;;;;;;;;;5073563;28;20033;-71
2024/03/20 09:59:31;;;;;;;4.35;1.80;;;;;;;;;;5072430;28;20044;-71
2024/03/20 10:02:35;;;;;;;3.30;2.05;;;;;;;;;;5073138;28;20033;-71
2024/03/20 10:05:40;;;;;;;3.72;2.00;;;;;;;;;;5073393;28;20393;-71
2024/03/20 10:08:45;;;;;;;3.08;1.92;;;;;;;;;;5073441;28;20044;-70
2024/03/20 10:11:50;;;;;;;3.95;1.90;;;20.70;61.80;;;;;;5072428;28;20048;-71
2024/03/20 10:14:54;;;;;;;8.52;2.38;;;;;;;;;;5073293;28;20043;-71
2024/03/20 10:17:58;;;;;;;3.08;1.77;;;;;;;;;;5072247;28;20373;-70
2024/03/20 10:21:03;;;;;;;5.30;2.45;;;21.10;60.10;;;;;;5072307;28;20049;-70
2024/03/20 10:24:07;;;;;;;4.25;1.80;;;;;;;;;;5073043;28;20499;-70
2024/03/20 10:27:13;;;;;;;3.83;2.08;;;21.30;59.80;;;;;;5072615;28;20504;-71
2024/03/20 10:30:21;;;;;;;3.92;2.22;;;;;;;;;;5071987;28;20412;-73
2024/03/20 10:33:25;;;;;;;5.07;2.10;;;;;;;;;;5072075;28;20040;-72
2024/03/20 10:36:32;;;;;;;5.03;2.47;;;;;;;;;;5071845;28;20044;-72
2024/03/20 10:39:36;;;;;;;5.82;2.40;;;21.20;57.90;;;;;;5072180;28;20524;-70
2024/03/20 10:42:41;;;;;;;3.05;2.08;;;;;;;;;;5072294;28;20044;-71
2024/03/20 10:45:45;;;;;;;2.53;2.05;;;21.30;60.20;;;;;;5072407;28;20041;-74
2024/03/20 10:48:55;;;;;;;6.30;2.55;;;;;;;;;;5072200;28;20044;-71
2024/03/20 10:52:00;;;;;;;5.63;2.28;;;;;;;;;;5072275;28;20044;-72
2024/03/20 10:55:06;;;;;;;7.40;2.30;;;;;;;;;;5072299;28;20040;-71
2024/03/20 10:58:18;;;;;;;2.47;1.73;;;21.20;59.10;;;;;;5071722;28;20036;-72
2024/03/20 11:01:22;;;;;;;5.40;2.45;;;;;;;;;;5071947;28;20059;-73
2024/03/20 11:04:39;;;;;;;4.40;2.42;;;21.80;57.60;;;;;;5072033;28;20052;-72
2024/03/20 11:07:46;;;;;;;4.22;2.17;;;21.60;56.50;;;;;;5059547;28;20047;-71
2024/03/20 11:10:50;;;;;;;5.80;2.05;;;;;;;;;;5071843;28;20047;-71
2024/03/20 11:13:54;;;;;;;5.40;2.13;;;;;;;;;;5071956;28;20040;-72
2024/03/20 11:17:03;;;;;;;5.72;2.15;;;;;;;;;;5071893;28;20044;-72
2024/03/20 11:20:37;;;;;;;5.32;2.10;;;21.20;55.00;;;;;;5071355;28;20048;-72
2024/03/20 11:23:42;;;;;;;3.95;2.05;;;;;;;;;;5074337;28;20047;-70
2024/03/20 11:26:50;;;;;;;3.20;1.77;;;;;;;;;;5071150;28;20040;-69
2024/03/20 11:29:57;;;;;;;2.83;2.05;;;;;;;;;;5070578;28;20041;-70
2024/03/20 11:33:01;;;;;;;7.82;2.38;;;;;;;;;;5059236;28;20041;-69
2024/03/20 11:36:06;;;;;;;3.97;1.80;;;;;;;;;;5070320;28;20036;-69
2024/03/20 11:39:10;;;;;;;3.90;1.50;;;;;;;;;;5071216;28;20373;-71
2024/03/20 11:42:18;;;;;;;4.03;2.63;;;;;;;;;;5071469;28;20041;-69
2024/03/20 11:45:23;;;;;;;3.83;1.83;;;;;;;;;;5071092;28;20041;-68
2024/03/20 11:48:27;;;;;;;5.50;2.15;;;;;;;;;;5071098;28;20037;-69
2024/03/20 11:51:32;;;;;;;2.60;1.88;;;;;;;;;;5070948;28;20033;-69
2024/03/20 11:54:37;;;;;;;3.55;1.80;;;;;;;;;;5070603;28;20044;-71
2024/03/20 11:57:41;;;;;;;4.68;1.55;;;;;;;;;;5070923;28;20045;-71
2024/03/20 12:00:45;;;;;;;7.03;2.80;;;;;;;;;;5070827;28;20044;-73
2024/03/20 12:03:52;;;;;;;7.53;2.20;;;20.10;51.10;;;;;;5070896;28;20472;-71
2024/03/20 12:06:57;;;;;;;3.22;1.60;;;;;;;;;;5071249;28;20052;-72
2024/03/20 12:10:02;;;;;;;4.85;1.83;;;;;;;;;;5070039;28;20040;-72
2024/03/20 12:13:10;;;;;;;2.45;1.85;;;20.80;50.60;;;;;;5071011;28;20045;-72
2024/03/20 12:16:15;;;;;;;4.55;1.90;;;;;;;;;;5070202;28;20043;-72
2024/03/20 12:19:19;;;;;;;3.50;1.95;;;;;;;;;;5069832;28;20492;-72
2024/03/20 12:22:24;;;;;;;7.47;2.30;;;;;;;;;;5069908;28;20032;-72
2024/03/20 12:25:29;;;;;;;5.18;1.85;;;;;;;;;;5071486;28;20100;-72
2024/03/20 12:28:34;;;;;;;5.03;1.88;;;;;;;;;;5070628;28;20045;-72
2024/03/20 12:31:40;;;;;;;8.75;3.03;;;;;;;;;;5070340;28;20369;-72
2024/03/20 12:34:45;;;;;;;7.43;2.75;;;;;;;;;;5071408;28;20037;-70
2024/03/20 12:37:49;;;;;;;2.58;1.75;;;;;;;;;;5070928;28;20045;-70
2024/03/20 12:40:53;;;;;;;5.68;2.40;;;;;;;;;;5070569;28;20040;-70
2024/03/20 12:43:58;;;;;;;4.05;1.92;;;;;;;;;;5070795;28;20036;-70
2024/03/20 12:47:03;;;;;;;3.72;2.13;;;23.40;57.60;;;;;;5069802;28;20040;-70
2024/03/20 12:50:11;;;;;;;4.30;1.90;;;;;;;;;;5069697;28;20507;-71
2024/03/20 12:53:16;;;;;;;3.33;2.00;;;;;;;;;;5070783;28;20041;-71
2024/03/20 12:56:20;;;;;;;12.85;2.80;;;;;;;;;;5070469;28;20445;-71
2024/03/20 12:59:24;;;;;;;4.95;2.22;;;;;;;;;;5070210;28;20057;-71
2024/03/20 13:02:31;;;;;;;3.65;1.98;;;;;;;;;;5069554;28;20041;-70
2024/03/20 13:05:38;;;;;;;4.47;2.25;;;;;;;;;;5070697;28;20040;-71
2024/03/20 13:08:42;;;;;;;3.63;2.30;;;;;;;;;;5072535;28;20044;-70
2024/03/20 13:11:46;;;;;;;5.28;2.30;;;;;;;;;;5060908;28;20369;-69
2024/03/20 13:14:51;;;;;;;4.00;2.45;;;;;;;;;;5071112;28;20040;-69
2024/03/20 13:17:55;;;;;;;4.25;2.22;;;;;;;;;;5073451;28;20036;-69
2024/03/20 13:21:24;;;;;;;3.95;2.55;;;20.40;57.90;;;;;;5073990;28;20040;-70
2024/03/20 13:24:29;;;;;;;2.85;1.73;;;;;;;;;;5074007;28;20039;-70
2024/03/20 13:27:33;;;;;;;5.78;2.28;;;;;;;;;;5073668;28;20053;-69
2024/03/20 13:30:37;;;;;;;7.35;2.70;;;;;;;;;;5073718;28;20041;-70
2024/03/20 13:33:42;;;;;;;3.20;2.03;;;;;;;;;;5073261;28;20044;-69
2024/03/20 13:36:55;;;;;;;3.28;1.90;;;;;;;;;;5073806;28;20028;-69
2024/03/20 13:40:30;;;;;;;6.90;2.17;;;;;;;;;;5073327;28;20049;-69
2024/03/20 13:46:57;;;;;;;8.20;2.40;;;;;;;;;;5073321;28;20045;-68
2024/03/20 13:50:01;;;;;;;4.35;2.05;;;;;;;;;;5073670;28;20500;-68
2024/03/20 13:53:06;;;;;;;3.33;1.92;;;;;;;;;;5073663;28;20056;-69
2024/03/20 13:56:18;;;;;;;6.95;2.28;;;20.50;57.80;;;;;;5073310;28;20040;-68
2024/03/20 13:59:22;;;;;;;5.00;2.03;;;;;;;;;;5069962;28;20056;-68
2024/03/20 14:02:27;;;;;;;1.95;1.60;;;20.50;58.20;;;;;;5072226;28;20024;-68
2024/03/20 14:05:32;;;;;;;4.88;2.03;;;;;;;;;;5072966;28;20047;-68
2024/03/20 14:08:36;;;;;;;5.93;2.15;;;;;;;;;;5073316;28;20044;-67
2024/03/20 14:11:41;;;;;;;4.65;1.92;;;;;;;;;;5073099;28;20029;-68
2024/03/20 14:14:49;;;;;;;2.47;1.92;;;;;;;;;;5073110;28;20044;-68
2024/03/20 14:17:55;;;;;;;5.03;1.92;;;;;;;;;;5071677;28;20151;-68
2024/03/20 14:21:00;;;;;;;7.18;2.30;;;;;;;;;;5073136;28;20041;-68
2024/03/20 14:24:04;;;;;;;4.90;1.88;;;;;;;;;;5072223;28;20033;-68
2024/03/20 14:27:14;;;;;;;10.77;1.77;;;21.40;58.20;;;;;;5072358;28;20053;-68
2024/03/20 14:30:19;;;;;;;3.05;1.95;;;;;;;;;;5071687;28;20043;-68
2024/03/20 14:33:23;;;;;;;4.40;1.95;;;;;;;;;;5072833;28;20089;-68
2024/03/20 14:36:27;;;;;;;2.78;1.60;;;;;;;;;;5072559;28;20480;-68
2024/03/20 14:39:36;;;;;;;6.07;1.83;;;18.40;55.20;;;;;;5072286;28;20550;-67
2024/03/20 14:42:40;;;;;;;2.28;1.75;;;;;;;;;;5071956;28;20385;-67
2024/03/20 14:45:45;;;;;;;2.95;1.55;;;;;;;;;;5072165;28;20472;-68
2024/03/20 14:48:50;;;;;;;5.93;2.03;;;20.20;56.90;;;;;;5072406;28;20477;-69
2024/03/20 14:51:55;;;;;;;8.23;1.92;;;;;;;;;;5072119;28;20502;-69
2024/03/20 14:54:59;;;;;;;6.68;2.08;;;;;;;;;;5072084;28;20040;-68
2024/03/20 14:58:03;;;;;;;4.78;2.10;;;;;;;;;;5072302;28;20044;-68
2024/03/20 15:01:19;;;;;;;3.60;1.58;;;20.10;55.40;;;;;;5071851;28;20044;-68
2024/03/20 15:04:23;;;;;;;5.85;2.03;;;;;;;;;;5071828;28;20044;-68
2024/03/20 15:07:28;;;;;;;7.75;2.47;;;;;;;;;;5072151;28;20040;-67
2024/03/20 15:10:35;;;;;;;8.30;1.90;;;;;;;;;;5071778;28;20381;-68
2024/03/20 15:13:39;;;;;;;3.88;2.00;;;;;;;;;;5071701;28;20139;-68
2024/03/20 15:16:44;;;;;;;3.25;2.00;;;;;;;;;;5072101;28;20041;-68
2024/03/20 15:19:48;;;;;;;5.20;2.22;;;;;;;;;;5071719;28;20044;-68
2024/03/20 15:22:52;;;;;;;3.40;1.90;;;;;;;;;;5071889;28;20033;-69
2024/03/20 15:25:57;;;;;;;3.33;2.03;;;;;;;;;;5071617;28;20490;-69
2024/03/20 15:29:01;;;;;;;4.18;1.70;;;;;;;;;;5070581;28;20048;-69
2024/03/20 15:32:14;;;;;;;3.47;1.90;;;20.00;57.30;;;;;;5071801;28;20036;-69
2024/03/20 15:35:18;;;;;;;5.72;2.13;;;;;;;;;;5071400;28;20040;-68
2024/03/20 15:38:26;;;;;;;4.93;2.10;;;20.10;57.40;;;;;;5070817;28;20071;-68
2024/03/20 15:41:31;;;;;;;9.50;3.30;;;;;;;;;;5071079;28;20048;-67
2024/03/20 15:44:35;;;;;;;5.70;2.75;;;;;;;;;;5071318;28;20041;-68
2024/03/20 15:47:39;;;;;;;3.05;1.88;;;;;;;;;;5071195;28;20044;-68
2024/03/20 15:50:43;;;;;;;2.53;1.80;;;;;;;;;;5071132;28;20033;-68
2024/03/20 15:53:51;;;;;;;4.10;1.90;;;;;;;;;;5071290;28;20036;-68
2024/03/20 15:56:55;;;;;;;2.42;1.92;;;;;;;;;;5071255;28;20036;-68
2024/03/20 16:00:00;;;;;;;7.90;2.65;;;;;;;;;;5070982;28;20048;-68
2024/03/20 16:03:05;;;;;;;4.05;2.40;;;;;;;;;;5070998;28;20044;-68
2024/03/20 16:06:10;;;;;;;3.60;2.05;;;20.10;58.40;;;;;;5070680;28;20032;-68
2024/03/20 16:09:21;;;;;;;4.55;2.40;;;;;;;;;;5070903;28;20051;-68
2024/03/20 16:12:29;;;;;;;8.55;2.80;;;19.80;57.70;;;;;;5070599;28;20370;-67
2024/03/20 16:15:33;;;;;;;2.42;1.90;;;;;;;;;;5070457;28;20519;-67
2024/03/20 16:18:37;;;;;;;2.78;1.80;;;;;;;;;;5069827;28;20032;-68
2024/03/20 16:21:44;;;;;;;9.88;3.03;;;;;;;;;;5070262;28;20044;-68
2024/03/20 16:24:48;;;;;;;5.68;2.72;;;;;;;;;;5070253;28;20041;-68
2024/03/20 16:27:52;;;;;;;9.95;3.70;;;;;;;;;;5069643;28;20064;-68
2024/03/20 16:30:56;;;;;;;7.40;3.75;;;;;;;;;;5070076;28;20032;-69
2024/03/20 16:34:01;;;;;;;8.43;3.38;;;;;;;;;;5069270;28;20040;-68
2024/03/20 16:37:05;;;;;;;13.45;4.20;;;;;;;;;;5070065;28;20362;-71
2024/03/20 16:40:10;;;;;;;5.50;3.05;;;19.40;74.70;;;;;;5071313;28;20052;-68
2024/03/20 16:43:15;;;;;;;11.77;3.15;;;;;;;;;;5073698;28;20052;-69
2024/03/20 16:46:19;;;;;;;12.95;4.13;;;;;;;;;;5074565;28;20036;-69
2024/03/20 16:49:23;;;;;;;12.13;3.92;;;;;;;;;;5074484;28;20040;-68
2024/03/20 16:52:27;;;;;;;8.30;3.85;;;;;;;;;;5074393;28;20040;-68
2024/03/20 16:55:32;;;;;;;16.25;3.88;;;;;;;;;;5074715;28;20044;-67
2024/03/20 16:58:36;;;;;;;10.05;5.70;;;;;;;;;;5074312;28;20525;-68
2024/03/20 17:01:41;;;;;;;12.52;4.38;;;;;;;;;;5074598;28;20040;-68
2024/03/20 17:04:45;;;;;;;7.90;3.22;;;;;;;;;;5074397;28;20051;-69
2024/03/20 17:07:50;;;;;;;12.80;5.40;;;;;;;;;;5074211;28;20037;-69
2024/03/20 17:10:54;;;;;;;15.27;5.03;;;;;;;;;;5074280;28;20400;-68
2024/03/20 17:13:58;;;;;;;25.13;9.40;;;;;;;;;;5074000;28;20037;-68
2024/03/20 17:17:03;;;;;;;22.33;9.45;;;;;;;;;;5073860;28;20091;-68
2024/03/20 17:20:07;;;;;;;25.77;11.10;;;;;;;;;;5073683;28;20060;-68
2024/03/20 17:23:12;;;;;;;37.63;21.70;;;;;;;;;;5073697;28;20472;-68
2024/03/20 17:26:16;;;;;;;22.90;9.23;;;;;;;;;;5073703;28;20052;-68
2024/03/20 17:29:20;;;;;;;18.17;8.32;;;;;;;;;;5073296;28;20048;-67
2024/03/20 17:32:25;;;;;;;18.90;7.00;;;;;;;;;;5072827;28;20523;-67
2024/03/20 17:35:32;;;;;;;17.95;6.65;;;;;;;;;;5073546;28;20461;-68
2024/03/20 17:38:37;;;;;;;18.75;7.32;;;;;;;;;;5074353;28;20491;-68
2024/03/20 17:41:41;;;;;;;18.65;6.63;;;;;;;;;;5073694;28;20044;-68
2024/03/20 17:44:45;;;;;;;26.35;8.68;;;;;;;;;;5073845;28;20028;-68
2024/03/20 17:47:50;;;;;;;13.65;7.18;;;;;;;;;;5072961;28;20045;-70
2024/03/20 17:50:54;;;;;;;16.48;7.18;;;;;;;;;;5073226;28;20396;-68
2024/03/20 17:53:58;;;;;;;15.63;7.43;;;;;;;;;;5073843;28;20048;-67
2024/03/20 17:57:03;;;;;;;18.77;8.65;;;;;;;;;;5073661;28;20068;-68
2024/03/20 18:00:13;;;;;;;23.58;8.80;;;;;;;;;;5072402;28;20582;-68
2024/03/20 18:03:20;;;;;;;17.80;9.25;;;;;;;;;;5072765;28;20036;-70
2024/03/20 18:06:26;;;;;;;21.75;8.43;;;16.30;88.20;;;;;;5072230;28;20167;-70